Morgantown Municipal Walter L. Bill Hart Field Morgantown US
ICAO: KMGW
IATA: MGW
Category: Medium
Scheduled Services: Yes

Elevation: 1248 ft
TransAlt. 18000 ft.

Airport Communications:
CLARKSBURG APP/DEP:121.15
ASOS:120.675
CTAF:125.1
GND:121.7
ELKINS RDO:122.6
TWR:125.1
UNICOM:122.95

KMGW Zoom In..

If you have problems with the map follow the link
https://www.worldairports.se/pages/airport.php?
ICAO=KMGW

Runways:

(A) RW 18 length 5199 ft width 150 ft
ILS 108.50 / hdg 181

(B) RW 36 length 5199 ft width 150 ft
---- / hdg 1

Location; KMGW
Day. 10 / Time. 01.53 Zulu
* Altimeter: 29.69
* Temperature: 14° c. 57.2°f.
* Wind from: 210° Speed 06 kn.
Dewpoint: 12° c.
Visibility: 10 Statute Miles.
Clouds: Broken 3200 ft.
Clouds: Overcast 4200 ft.

KMGW 100153Z 21006KT 10SM BKN032 OVC042 14/12 A2969 RMK AO2 RAB0055E42 SLP052 P0001 T01390117


Wind From 210°
Speed 06 kn.

 
 
jpsmedia worldairports.se 2019   terms of use